Flight Number: EUR2117 Duration: 1:20
Departure: Munich Int'l (EDDM) at 07:20 Distance: 462 Nm
Arrival: Tivat Airport (LYTV) at 08:40 Equipment: MD-81

Weather Information
Munchen, Germany (EDDM) 48-21N 011-47E May 20, 2018 - 09:20 AM EDT / 2018.05.20 1320 UTC
Wind: from the E (080 degrees) at 18 MPH (16 KT):0
Visibility: greater than 7 mile(s):0 Temperature: 68 F (20 C) Dew Point: 46 F (8 C) Relative Humidity: 45% Pressure (altimeter): 30.06 in. Hg (1018 hPa)
ob: EDDM 201320Z 08016KT CAVOK 20/08 Q1018 NOSIG cycle: 13
Sunrise: 03:30 Sunset: 18:48 (UTC)

Tivat, Serbia and Montenegro (LYTV) 42-24N 018-44E 5M May 20, 2018 - 09:30 AM EDT / 2018.05.20 1330 UTC
Wind: from the SSW (210 degrees) at 3 MPH (3 KT) (direction variable):0
Visibility: greater than 7 mile(s):0
Sky conditions: mostly clear Temperature: 84 F (29 C) Dew Point: 53 F (12 C) Relative Humidity: 34% Pressure (altimeter): 29.88 in. Hg (1012 hPa)
ob: LYTV 201330Z 21003KT 140V250 9999 FEW040 29/12 Q1012 NOSIG cycle: 13
Sunrise: 03:21 Sunset: 18:01 (UTC)

TAF:2018/05/20 12:21 TAF LYTV 201100Z 2012/2112 22008KT 9999 FEW040 TX29/2013Z TN15/2103Z

Previous Pireps for this route
Date Aircraft Flight time Fuel used Landing rate On time
2012-07-17MD-811.08102530Yes
2012-08-25MD-8101.4210927-204No
2012-09-17MD-8101.4210210-285No
2012-10-29MD-8101.4314330-466No
2012-12-09MD-8101.4310626-598No
2013-10-10MD-8102.1410875-116No
2014-05-15MD-8101.2810367-201Yes
2014-09-08MD-8101.269660-573Yes
2015-10-06MD-8101.4714785-141No
(pireps marked green are flown by you)

Route map